Terminal Aerodrome Forecast
Issued by NWS Louisville, KY

Home | Current Version | Previous Version | Text Only | Print | Product List | Glossary On
Versions: 1 2 3 4 5 6 7 8 9 10 11 12 13
000
FTUS43 KLMK 022300
TAFBWG
TAF
KBWG 022320Z 0300/0324 05007KT P6SM BKN250
     FM030900 VRB03KT P6SM BKN025
     FM031100 15005KT 3SM -RA BR BKN015
     FM031800 20012KT 5SM -SHRA BKN010=

USA.gov is the U.S. government's official web portal to all federal, state and local government web resources and services.